sensor_id;sensor_type;location;lat;lon;timestamp;pressure;altitude;pressure_sealevel;temperature;humidity
31225;BME280;17847;31.524;74.366;2023-05-09T00:01:33;98374.38;;;21.64;60.61
31225;BME280;17847;31.524;74.366;2023-05-09T00:04:03;98369.81;;;21.65;60.43
31225;BME280;17847;31.524;74.366;2023-05-09T00:06:33;98370.09;;;21.63;60.53
31225;BME280;17847;31.524;74.366;2023-05-09T00:09:03;98376.28;;;21.64;60.27
31225;BME280;17847;31.524;74.366;2023-05-09T00:11:32;98378.44;;;21.62;60.81
31225;BME280;17847;31.524;74.366;2023-05-09T00:14:02;98379.50;;;21.61;61.27
31225;BME280;17847;31.524;74.366;2023-05-09T00:16:31;98377.91;;;21.60;61.35
31225;BME280;17847;31.524;74.366;2023-05-09T00:19:01;98377.91;;;21.60;61.07
31225;BME280;17847;31.524;74.366;2023-05-09T00:21:31;98376.81;;;21.61;61.32
31225;BME280;17847;31.524;74.366;2023-05-09T00:24:02;98379.50;;;21.61;61.44
31225;BME280;17847;31.524;74.366;2023-05-09T00:26:31;98390.84;;;21.63;61.47
31225;BME280;17847;31.524;74.366;2023-05-09T00:29:00;98390.03;;;21.62;61.72
31225;BME280;17847;31.524;74.366;2023-05-09T00:31:29;98387.34;;;21.62;61.86
31225;BME280;17847;31.524;74.366;2023-05-09T00:33:59;98393.00;;;21.66;61.72
31225;BME280;17847;31.524;74.366;2023-05-09T00:36:28;98390.56;;;21.69;61.63
31225;BME280;17847;31.524;74.366;2023-05-09T00:38:58;98392.19;;;21.70;61.83
31225;BME280;17847;31.524;74.366;2023-05-09T00:41:27;98402.41;;;21.73;62.39
31225;BME280;17847;31.524;74.366;2023-05-09T00:43:57;98399.44;;;21.75;62.60
31225;BME280;17847;31.524;74.366;2023-05-09T00:46:26;98389.22;;;21.77;62.54
31225;BME280;17847;31.524;74.366;2023-05-09T00:48:56;98388.66;;;21.80;62.15
31225;BME280;17847;31.524;74.366;2023-05-09T00:51:26;98395.38;;;21.82;62.39
31225;BME280;17847;31.524;74.366;2023-05-09T00:53:56;98394.31;;;21.88;62.40
31225;BME280;17847;31.524;74.366;2023-05-09T00:56:26;98405.34;;;21.92;62.54
31225;BME280;17847;31.524;74.366;2023-05-09T00:58:55;98411.56;;;21.98;62.66
31225;BME280;17847;31.524;74.366;2023-05-09T01:01:25;98420.72;;;22.02;62.69
31225;BME280;17847;31.524;74.366;2023-05-09T01:03:54;98416.66;;;22.04;62.74
31225;BME280;17847;31.524;74.366;2023-05-09T01:09:14;98424.47;;;22.16;62.26
31225;BME280;17847;31.524;74.366;2023-05-09T01:18:42;98442.22;;;22.32;61.78
31225;BME280;17847;31.524;74.366;2023-05-09T01:20:52;98446.53;;;22.38;61.98
31225;BME280;17847;31.524;74.366;2023-05-09T01:26:24;98451.06;;;22.53;61.98
31225;BME280;17847;31.524;74.366;2023-05-09T01:31:47;98453.19;;;22.66;61.40
31225;BME280;17847;31.524;74.366;2023-05-09T01:34:20;98445.88;;;22.71;60.92
31225;BME280;17847;31.524;74.366;2023-05-09T01:36:51;98455.59;;;22.77;60.63
31225;BME280;17847;31.524;74.366;2023-05-09T01:39:24;98463.38;;;22.84;61.02
31225;BME280;17847;31.524;74.366;2023-05-09T01:41:57;98476.31;;;22.92;61.21
31225;BME280;17847;31.524;74.366;2023-05-09T01:44:36;98472.22;;;23.00;60.62
31225;BME280;17847;31.524;74.366;2023-05-09T01:47:07;98477.25;;;23.16;60.28
31225;BME280;17847;31.524;74.366;2023-05-09T01:49:39;98474.06;;;23.53;59.85
31225;BME280;17847;31.524;74.366;2023-05-09T01:52:13;98471.03;;;24.23;57.59
31225;BME280;17847;31.524;74.366;2023-05-09T01:54:44;98472.28;;;25.01;55.43
31225;BME280;17847;31.524;74.366;2023-05-09T01:57:15;98483.00;;;25.49;53.29
31225;BME280;17847;31.524;74.366;2023-05-09T01:59:47;98482.41;;;26.03;50.94
31225;BME280;17847;31.524;74.366;2023-05-09T02:02:17;98483.22;;;26.50;49.39
31225;BME280;17847;31.524;74.366;2023-05-09T02:04:48;98485.81;;;26.96;48.51
31225;BME280;17847;31.524;74.366;2023-05-09T02:07:19;98493.09;;;27.36;46.49
31225;BME280;17847;31.524;74.366;2023-05-09T02:09:54;98495.75;;;27.63;46.38
31225;BME280;17847;31.524;74.366;2023-05-09T02:12:25;98491.41;;;27.85;46.01
31225;BME280;17847;31.524;74.366;2023-05-09T02:14:54;98508.53;;;28.07;45.05
31225;BME280;17847;31.524;74.366;2023-05-09T02:17:23;98501.44;;;28.20;44.93
31225;BME280;17847;31.524;74.366;2023-05-09T02:19:53;98508.94;;;28.45;44.55
31225;BME280;17847;31.524;74.366;2023-05-09T02:22:23;98515.59;;;28.62;44.32
31225;BME280;17847;31.524;74.366;2023-05-09T02:24:52;98519.03;;;28.76;43.73
31225;BME280;17847;31.524;74.366;2023-05-09T02:27:21;98519.38;;;28.83;43.74
31225;BME280;17847;31.524;74.366;2023-05-09T02:29:54;98515.84;;;28.82;43.25
31225;BME280;17847;31.524;74.366;2023-05-09T02:32:27;98518.72;;;28.86;42.87
31225;BME280;17847;31.524;74.366;2023-05-09T02:35:00;98518.56;;;28.82;43.03
31225;BME280;17847;31.524;74.366;2023-05-09T02:37:30;98525.13;;;28.81;43.20
31225;BME280;17847;31.524;74.366;2023-05-09T02:40:00;98520.97;;;28.84;43.10
31225;BME280;17847;31.524;74.366;2023-05-09T02:42:29;98526.28;;;28.80;41.80
31225;BME280;17847;31.524;74.366;2023-05-09T02:44:59;98525.78;;;28.87;41.61
31225;BME280;17847;31.524;74.366;2023-05-09T02:47:29;98533.63;;;28.71;42.73
31225;BME280;17847;31.524;74.366;2023-05-09T02:49:58;98531.00;;;28.66;41.92
31225;BME280;17847;31.524;74.366;2023-05-09T02:52:27;98535.47;;;28.62;42.29
31225;BME280;17847;31.524;74.366;2023-05-09T02:54:57;98534.44;;;28.49;42.83
31225;BME280;17847;31.524;74.366;2023-05-09T02:57:26;98540.00;;;28.36;43.16
31225;BME280;17847;31.524;74.366;2023-05-09T02:59:55;98542.25;;;28.42;42.29
31225;BME280;17847;31.524;74.366;2023-05-09T03:02:25;98542.09;;;28.39;42.29
31225;BME280;17847;31.524;74.366;2023-05-09T03:04:55;98542.38;;;28.37;43.06
31225;BME280;17847;31.524;74.366;2023-05-09T03:07:24;98545.69;;;28.26;42.83
31225;BME280;17847;31.524;74.366;2023-05-09T03:09:53;98552.00;;;27.90;42.67
31225;BME280;17847;31.524;74.366;2023-05-09T03:12:23;98553.03;;;27.81;43.08
31225;BME280;17847;31.524;74.366;2023-05-09T03:14:55;98547.69;;;27.76;43.61
31225;BME280;17847;31.524;74.366;2023-05-09T03:17:25;98548.84;;;27.75;43.71
31225;BME280;17847;31.524;74.366;2023-05-09T03:19:55;98548.38;;;27.45;43.69
31225;BME280;17847;31.524;74.366;2023-05-09T03:22:25;98561.16;;;27.58;43.35
31225;BME280;17847;31.524;74.366;2023-05-09T03:25:00;98559.88;;;27.56;42.78
31225;BME280;17847;31.524;74.366;2023-05-09T03:27:29;98570.31;;;27.62;42.89
31225;BME280;17847;31.524;74.366;2023-05-09T03:29:59;98565.75;;;27.72;43.62
31225;BME280;17847;31.524;74.366;2023-05-09T03:32:29;98579.53;;;27.53;43.93
31225;BME280;17847;31.524;74.366;2023-05-09T03:34:59;98580.53;;;27.57;43.99
31225;BME280;17847;31.524;74.366;2023-05-09T03:37:31;98575.91;;;27.44;43.86
31225;BME280;17847;31.524;74.366;2023-05-09T03:40:01;98577.19;;;27.60;44.09
31225;BME280;17847;31.524;74.366;2023-05-09T03:42:37;98571.06;;;27.54;44.12
31225;BME280;17847;31.524;74.366;2023-05-09T03:45:07;98580.28;;;27.67;44.93
31225;BME280;17847;31.524;74.366;2023-05-09T03:47:37;98580.53;;;27.57;44.00
31225;BME280;17847;31.524;74.366;2023-05-09T03:50:07;98582.94;;;27.58;43.62
31225;BME280;17847;31.524;74.366;2023-05-09T03:52:38;98583.19;;;27.48;43.81
31225;BME280;17847;31.524;74.366;2023-05-09T03:55:08;98584.97;;;27.53;42.81
31225;BME280;17847;31.524;74.366;2023-05-09T03:57:38;98578.31;;;27.45;42.91
31225;BME280;17847;31.524;74.366;2023-05-09T04:00:07;98582.75;;;27.41;43.11
31225;BME280;17847;31.524;74.366;2023-05-09T04:02:41;98586.50;;;27.18;43.59
31225;BME280;17847;31.524;74.366;2023-05-09T04:05:20;98588.19;;;27.41;44.00
31225;BME280;17847;31.524;74.366;2023-05-09T04:07:49;98588.19;;;27.41;43.66
31225;BME280;17847;31.524;74.366;2023-05-09T04:10:19;98587.91;;;27.56;42.58
31225;BME280;17847;31.524;74.366;2023-05-09T04:12:49;98583.19;;;27.48;43.12
31225;BME280;17847;31.524;74.366;2023-05-09T04:15:18;98585.34;;;27.74;43.66
31225;BME280;17847;31.524;74.366;2023-05-09T04:17:48;98579.03;;;27.87;44.50
31225;BME280;17847;31.524;74.366;2023-05-09T04:20:18;98588.97;;;28.27;43.35
31225;BME280;17847;31.524;74.366;2023-05-09T04:22:47;98583.31;;;28.01;44.17
31225;BME280;17847;31.524;74.366;2023-05-09T04:25:18;98580.28;;;28.03;44.63
31225;BME280;17847;31.524;74.366;2023-05-09T04:27:49;98587.50;;;28.07;43.53
31225;BME280;17847;31.524;74.366;2023-05-09T04:30:18;98588.91;;;28.19;43.06
31225;BME280;17847;31.524;74.366;2023-05-09T04:32:48;98579.38;;;28.30;42.96
31225;BME280;17847;31.524;74.366;2023-05-09T04:35:18;98578.91;;;28.58;42.33
31225;BME280;17847;31.524;74.366;2023-05-09T04:37:51;98575.38;;;28.58;43.85
31225;BME280;17847;31.524;74.366;2023-05-09T04:40:21;98579.81;;;28.76;43.23
31225;BME280;17847;31.524;74.366;2023-05-09T04:42:57;98576.59;;;28.74;43.82
31225;BME280;17847;31.524;74.366;2023-05-09T04:45:29;98575.84;;;28.91;43.10
31225;BME280;17847;31.524;74.366;2023-05-09T04:48:00;98574.78;;;29.00;41.63
31225;BME280;17847;31.524;74.366;2023-05-09T04:50:30;98575.25;;;28.94;42.25
31225;BME280;17847;31.524;74.366;2023-05-09T04:53:05;98579.19;;;29.27;42.37
31225;BME280;17847;31.524;74.366;2023-05-09T04:55:36;98585.41;;;29.11;41.82
31225;BME280;17847;31.524;74.366;2023-05-09T04:58:06;98577.41;;;29.23;42.48
31225;BME280;17847;31.524;74.366;2023-05-09T05:00:37;98586.78;;;29.48;43.84
31225;BME280;17847;31.524;74.366;2023-05-09T05:03:07;98588.75;;;29.56;41.58
31225;BME280;17847;31.524;74.366;2023-05-09T05:05:40;98587.44;;;29.62;40.10
31225;BME280;17847;31.524;74.366;2023-05-09T05:08:10;98598.09;;;29.89;42.57
31225;BME280;17847;31.524;74.366;2023-05-09T05:10:41;98594.88;;;29.87;41.79
31225;BME280;17847;31.524;74.366;2023-05-09T05:13:12;98582.09;;;29.31;41.24
31225;BME280;17847;31.524;74.366;2023-05-09T05:15:45;98589.34;;;29.44;41.04
31225;BME280;17847;31.524;74.366;2023-05-09T05:18:15;98593.88;;;29.57;41.44
31225;BME280;17847;31.524;74.366;2023-05-09T05:20:44;98590.53;;;29.69;40.89
31225;BME280;17847;31.524;74.366;2023-05-09T05:23:13;98599.16;;;29.62;41.54
31225;BME280;17847;31.524;74.366;2023-05-09T05:25:44;98598.88;;;29.64;41.11
31225;BME280;17847;31.524;74.366;2023-05-09T05:28:14;98599.84;;;29.76;40.60
31225;BME280;17847;31.524;74.366;2023-05-09T05:30:43;98603.81;;;29.62;40.04
31225;BME280;17847;31.524;74.366;2023-05-09T05:33:12;98600.81;;;29.98;39.96
31225;BME280;17847;31.524;74.366;2023-05-09T05:35:42;98605.03;;;29.95;40.98
31225;BME280;17847;31.524;74.366;2023-05-09T05:38:12;98604.78;;;29.74;40.92
31225;BME280;17847;31.524;74.366;2023-05-09T05:40:44;98606.28;;;29.89;39.81
31225;BME280;17847;31.524;74.366;2023-05-09T05:43:14;98603.25;;;30.08;40.05
31225;BME280;17847;31.524;74.366;2023-05-09T05:45:43;98612.25;;;30.17;40.87
31225;BME280;17847;31.524;74.366;2023-05-09T05:48:16;98594.69;;;30.44;40.11
31225;BME280;17847;31.524;74.366;2023-05-09T05:50:47;98595.50;;;30.36;39.84
31225;BME280;17847;31.524;74.366;2023-05-09T05:53:19;98594.72;;;30.18;39.40
31225;BME280;17847;31.524;74.366;2023-05-09T05:55:50;98601.91;;;29.79;38.58
31225;BME280;17847;31.524;74.366;2023-05-09T05:58:20;98593.22;;;29.52;38.51
31225;BME280;17847;31.524;74.366;2023-05-09T06:00:51;98594.88;;;29.87;39.55
31225;BME280;17847;31.524;74.366;2023-05-09T06:03:20;98588.13;;;30.02;37.55
31225;BME280;17847;31.524;74.366;2023-05-09T06:05:56;98585.88;;;30.12;39.13
31225;BME280;17847;31.524;74.366;2023-05-09T06:08:27;98584.78;;;30.05;38.07
31225;BME280;17847;31.524;74.366;2023-05-09T06:10:57;98586.03;;;30.24;39.52
31225;BME280;17847;31.524;74.366;2023-05-09T06:13:28;98581.38;;;30.08;39.28
31225;BME280;17847;31.524;74.366;2023-05-09T06:16:03;98582.19;;;30.17;40.11
31225;BME280;17847;31.524;74.366;2023-05-09T06:18:49;98586.34;;;30.31;40.12
31225;BME280;17847;31.524;74.366;2023-05-09T06:21:21;98581.47;;;30.54;38.90
31225;BME280;17847;31.524;74.366;2023-05-09T06:23:51;98575.41;;;30.49;38.50
31225;BME280;17847;31.524;74.366;2023-05-09T06:26:35;98582.03;;;30.22;37.34
31225;BME280;17847;31.524;74.366;2023-05-09T06:29:05;98578.81;;;30.11;36.62
31225;BME280;17847;31.524;74.366;2023-05-09T06:31:36;98569.47;;;30.21;35.12
31225;BME280;17847;31.524;74.366;2023-05-09T06:34:07;98583.97;;;29.96;35.69
31225;BME280;17847;31.524;74.366;2023-05-09T06:36:36;98575.44;;;29.88;37.71
31225;BME280;17847;31.524;74.366;2023-05-09T06:39:05;98577.06;;;29.98;37.11
31225;BME280;17847;31.524;74.366;2023-05-09T06:41:34;98575.25;;;29.85;36.81
31225;BME280;17847;31.524;74.366;2023-05-09T06:44:04;98580.59;;;29.99;36.92
31225;BME280;17847;31.524;74.366;2023-05-09T06:46:33;98572.84;;;29.83;37.93
31225;BME280;17847;31.524;74.366;2023-05-09T06:49:03;98569.16;;;29.97;35.54
31225;BME280;17847;31.524;74.366;2023-05-09T06:51:33;98567.59;;;29.96;37.98
31225;BME280;17847;31.524;74.366;2023-05-09T06:54:02;98565.47;;;29.75;36.00
31225;BME280;17847;31.524;74.366;2023-05-09T06:56:32;98555.66;;;29.57;33.62
31225;BME280;17847;31.524;74.366;2023-05-09T06:59:02;98550.03;;;29.62;33.42
31225;BME280;17847;31.524;74.366;2023-05-09T07:01:31;98551.00;;;29.83;35.02
31225;BME280;17847;31.524;74.366;2023-05-09T07:04:00;98562.09;;;29.78;36.05
31225;BME280;17847;31.524;74.366;2023-05-09T07:06:29;98554.06;;;29.73;36.58
31225;BME280;17847;31.524;74.366;2023-05-09T07:08:59;98559.56;;;29.91;36.78
31225;BME280;17847;31.524;74.366;2023-05-09T07:11:34;98547.31;;;29.97;35.13
31225;BME280;17847;31.524;74.366;2023-05-09T07:14:03;98546.19;;;29.98;34.85
31225;BME280;17847;31.524;74.366;2023-05-09T07:16:33;98558.38;;;29.83;34.72
31225;BME280;17847;31.524;74.366;2023-05-09T07:19:04;98543.16;;;29.73;34.00
31225;BME280;17847;31.524;74.366;2023-05-09T07:21:33;98539.44;;;29.78;34.00
31225;BME280;17847;31.524;74.366;2023-05-09T07:24:03;98531.44;;;29.90;34.27
31225;BME280;17847;31.524;74.366;2023-05-09T07:26:36;98543.16;;;29.99;34.67
31225;BME280;17847;31.524;74.366;2023-05-09T07:29:06;98535.41;;;29.84;35.16
31225;BME280;17847;31.524;74.366;2023-05-09T07:31:36;98530.94;;;29.71;35.09
31225;BME280;17847;31.524;74.366;2023-05-09T07:34:05;98523.88;;;29.78;34.49
31225;BME280;17847;31.524;74.366;2023-05-09T07:36:34;98519.22;;;29.87;33.33
31225;BME280;17847;31.524;74.366;2023-05-09T07:39:09;98528.69;;;29.81;33.77
31225;BME280;17847;31.524;74.366;2023-05-09T07:41:39;98534.31;;;29.51;33.23
31225;BME280;17847;31.524;74.366;2023-05-09T07:44:08;98529.81;;;29.72;32.56
31225;BME280;17847;31.524;74.366;2023-05-09T07:46:38;98521.31;;;29.56;30.69
31225;BME280;17847;31.524;74.366;2023-05-09T07:49:09;98523.69;;;29.58;29.43
31225;BME280;17847;31.524;74.366;2023-05-09T07:51:39;98526.13;;;29.59;32.66
31225;BME280;17847;31.524;74.366;2023-05-09T07:54:08;98521.31;;;29.65;31.14
31225;BME280;17847;31.524;74.366;2023-05-09T07:56:38;98520.66;;;29.94;31.09
31225;BME280;17847;31.524;74.366;2023-05-09T07:59:08;98513.28;;;29.94;31.83
31225;BME280;17847;31.524;74.366;2023-05-09T08:01:38;98514.06;;;29.77;31.33
31225;BME280;17847;31.524;74.366;2023-05-09T08:04:07;98510.38;;;29.56;29.86
31225;BME280;17847;31.524;74.366;2023-05-09T08:06:37;98503.16;;;29.60;27.99
31225;BME280;17847;31.524;74.366;2023-05-09T08:09:06;98508.13;;;29.67;31.28
31225;BME280;17847;31.524;74.366;2023-05-09T08:11:36;98493.81;;;29.61;32.69
31225;BME280;17847;31.524;74.366;2023-05-09T08:14:05;98493.03;;;29.52;30.16
31225;BME280;17847;31.524;74.366;2023-05-09T08:16:36;98500.75;;;29.50;31.07
31225;BME280;17847;31.524;74.366;2023-05-09T08:19:05;98493.22;;;29.38;31.45
31225;BME280;17847;31.524;74.366;2023-05-09T08:21:35;98493.97;;;29.39;31.14
31225;BME280;17847;31.524;74.366;2023-05-09T08:24:04;98488.84;;;29.29;32.13
31225;BME280;17847;31.524;74.366;2023-05-09T08:26:35;98496.66;;;29.22;30.70
31225;BME280;17847;31.524;74.366;2023-05-09T08:29:04;98491.22;;;29.22;31.03
31225;BME280;17847;31.524;74.366;2023-05-09T08:31:33;98488.31;;;29.10;31.22
31225;BME280;17847;31.524;74.366;2023-05-09T08:34:03;98480.94;;;29.10;30.33
31225;BME280;17847;31.524;74.366;2023-05-09T08:36:33;98473.72;;;29.14;31.17
31225;BME280;17847;31.524;74.366;2023-05-09T08:39:02;98472.75;;;29.19;29.21
31225;BME280;17847;31.524;74.366;2023-05-09T08:41:32;98472.28;;;29.17;29.92
31225;BME280;17847;31.524;74.366;2023-05-09T08:44:04;98469.53;;;29.17;31.79
31225;BME280;17847;31.524;74.366;2023-05-09T08:46:38;98472.59;;;29.15;30.98
31225;BME280;17847;31.524;74.366;2023-05-09T08:49:09;98473.56;;;29.11;30.77
31225;BME280;17847;31.524;74.366;2023-05-09T08:51:40;98464.41;;;29.07;31.86
31225;BME280;17847;31.524;74.366;2023-05-09T08:54:10;98465.84;;;29.04;31.76
31225;BME280;17847;31.524;74.366;2023-05-09T08:56:40;98458.16;;;29.06;30.56
31225;BME280;17847;31.524;74.366;2023-05-09T08:59:10;98453.66;;;28.93;30.79
31225;BME280;17847;31.524;74.366;2023-05-09T09:01:39;98454.28;;;28.90;31.07
31225;BME280;17847;31.524;74.366;2023-05-09T09:04:09;98451.38;;;28.95;31.01
31225;BME280;17847;31.524;74.366;2023-05-09T09:06:42;98449.31;;;29.00;31.41
31225;BME280;17847;31.524;74.366;2023-05-09T09:09:12;98447.09;;;29.02;32.70
31225;BME280;17847;31.524;74.366;2023-05-09T09:11:42;98450.41;;;28.91;33.65
31225;BME280;17847;31.524;74.366;2023-05-09T09:14:16;98446.59;;;28.92;31.96
31225;BME280;17847;31.524;74.366;2023-05-09T09:16:49;98447.06;;;28.94;31.38
31225;BME280;17847;31.524;74.366;2023-05-09T09:19:21;98442.06;;;28.79;31.31
31225;BME280;17847;31.524;74.366;2023-05-09T09:21:54;98437.88;;;28.73;32.41
31225;BME280;17847;31.524;74.366;2023-05-09T09:24:25;98431.47;;;28.86;31.52
31225;BME280;17847;31.524;74.366;2023-05-09T09:26:54;98433.09;;;28.87;32.75
31225;BME280;17847;31.524;74.366;2023-05-09T09:29:24;98434.88;;;28.91;32.52
31225;BME280;17847;31.524;74.366;2023-05-09T09:31:56;98430.06;;;28.97;33.11
31225;BME280;17847;31.524;74.366;2023-05-09T09:34:29;98431.50;;;28.94;33.23
31225;BME280;17847;31.524;74.366;2023-05-09T09:36:59;98430.38;;;28.87;32.19
31225;BME280;17847;31.524;74.366;2023-05-09T09:39:28;98419.16;;;28.88;33.96
31225;BME280;17847;31.524;74.366;2023-05-09T09:42:09;98424.63;;;28.97;32.80
31225;BME280;17847;31.524;74.366;2023-05-09T09:44:40;98417.69;;;28.91;33.98
31225;BME280;17847;31.524;74.366;2023-05-09T09:47:09;98408.41;;;28.83;33.28
31225;BME280;17847;31.524;74.366;2023-05-09T09:49:45;98413.38;;;28.90;32.05
31225;BME280;17847;31.524;74.366;2023-05-09T09:52:22;98408.09;;;28.85;32.61
31225;BME280;17847;31.524;74.366;2023-05-09T09:54:55;98402.47;;;28.90;33.12
31225;BME280;17847;31.524;74.366;2023-05-09T09:57:36;98407.94;;;28.98;34.27
31225;BME280;17847;31.524;74.366;2023-05-09T10:00:08;98398.94;;;28.89;33.64
31225;BME280;17847;31.524;74.366;2023-05-09T10:02:47;98398.00;;;28.85;33.58
31225;BME280;17847;31.524;74.366;2023-05-09T10:05:25;98411.44;;;28.82;33.49
31225;BME280;17847;31.524;74.366;2023-05-09T10:07:57;98402.63;;;28.85;32.78
31225;BME280;17847;31.524;74.366;2023-05-09T10:10:32;98389.63;;;28.90;32.55
31225;BME280;17847;31.524;74.366;2023-05-09T10:13:10;98383.72;;;28.88;32.18
31225;BME280;17847;31.524;74.366;2023-05-09T10:15:50;98391.22;;;28.83;33.68
31225;BME280;17847;31.524;74.366;2023-05-09T10:18:24;98385.31;;;28.89;32.30
31225;BME280;17847;31.524;74.366;2023-05-09T10:20:57;98383.56;;;28.85;33.36
31225;BME280;17847;31.524;74.366;2023-05-09T10:23:37;98387.53;;;28.70;33.84
31225;BME280;17847;31.524;74.366;2023-05-09T10:28:47;98382.09;;;28.79;32.37
31225;BME280;17847;31.524;74.366;2023-05-09T10:31:27;98376.31;;;28.80;32.97
31225;BME280;17847;31.524;74.366;2023-05-09T10:34:04;98370.22;;;28.75;31.71
31225;BME280;17847;31.524;74.366;2023-05-09T10:36:38;98372.50;;;28.90;32.25
31225;BME280;17847;31.524;74.366;2023-05-09T10:39:08;98371.69;;;28.89;33.54
31225;BME280;17847;31.524;74.366;2023-05-09T10:41:38;98376.34;;;28.89;32.09
31225;BME280;17847;31.524;74.366;2023-05-09T10:44:07;98366.69;;;28.83;33.53
31225;BME280;17847;31.524;74.366;2023-05-09T10:46:37;98369.25;;;28.79;33.39
31225;BME280;17847;31.524;74.366;2023-05-09T10:49:07;98364.75;;;28.75;33.37
31225;BME280;17847;31.524;74.366;2023-05-09T10:51:38;98366.69;;;28.83;33.51
31225;BME280;17847;31.524;74.366;2023-05-09T10:54:14;98360.78;;;28.89;33.65
31225;BME280;17847;31.524;74.366;2023-05-09T10:56:56;98361.09;;;28.88;33.09
31225;BME280;17847;31.524;74.366;2023-05-09T10:59:51;98360.59;;;28.77;33.00
31225;BME280;17847;31.524;74.366;2023-05-09T11:02:22;98357.88;;;28.86;32.54
31225;BME280;17847;31.524;74.366;2023-05-09T11:05:16;98354.81;;;28.79;33.46
31225;BME280;17847;31.524;74.366;2023-05-09T11:07:46;98357.41;;;28.84;34.29
31225;BME280;17847;31.524;74.366;2023-05-09T11:10:16;98354.03;;;28.87;34.24
31225;BME280;17847;31.524;74.366;2023-05-09T11:12:59;98353.88;;;28.83;34.46
31225;BME280;17847;31.524;74.366;2023-05-09T11:15:28;98352.91;;;28.79;34.06
31225;BME280;17847;31.524;74.366;2023-05-09T11:18:10;98351.28;;;28.78;35.04
31225;BME280;17847;31.524;74.366;2023-05-09T11:20:44;98350.28;;;28.66;34.66
31225;BME280;17847;31.524;74.366;2023-05-09T11:23:16;98353.16;;;28.52;34.29
31225;BME280;17847;31.524;74.366;2023-05-09T11:25:48;98353.00;;;28.48;34.03
31225;BME280;17847;31.524;74.366;2023-05-09T11:28:31;98338.22;;;28.32;33.99
31225;BME280;17847;31.524;74.366;2023-05-09T11:31:10;98341.09;;;28.27;34.51
31225;BME280;17847;31.524;74.366;2023-05-09T11:33:41;98346.34;;;28.24;34.46
31225;BME280;17847;31.524;74.366;2023-05-09T11:36:18;98341.25;;;28.22;34.74
31225;BME280;17847;31.524;74.366;2023-05-09T11:39:05;98336.75;;;28.26;33.71
31225;BME280;17847;31.524;74.366;2023-05-09T11:41:42;98346.56;;;28.36;34.27
31225;BME280;17847;31.524;74.366;2023-05-09T11:44:14;98340.94;;;28.32;34.82
31225;BME280;17847;31.524;74.366;2023-05-09T11:46:46;98345.75;;;28.35;34.53
31225;BME280;17847;31.524;74.366;2023-05-09T11:49:16;98342.53;;;28.33;35.50
31225;BME280;17847;31.524;74.366;2023-05-09T11:51:47;98346.69;;;28.22;35.02
31225;BME280;17847;31.524;74.366;2023-05-09T11:54:17;98347.47;;;28.14;34.56
31225;BME280;17847;31.524;74.366;2023-05-09T11:56:46;98341.22;;;28.13;35.09
31225;BME280;17847;31.524;74.366;2023-05-09T11:59:23;98350.66;;;28.16;35.06
31225;BME280;17847;31.524;74.366;2023-05-09T12:01:52;98349.84;;;28.16;34.94
31225;BME280;17847;31.524;74.366;2023-05-09T12:04:22;98353.81;;;28.09;35.08
31225;BME280;17847;31.524;74.366;2023-05-09T12:07:00;98349.69;;;28.12;34.84
31225;BME280;17847;31.524;74.366;2023-05-09T12:09:31;98352.41;;;28.12;35.14
31225;BME280;17847;31.524;74.366;2023-05-09T12:12:01;98352.09;;;28.13;33.73
31225;BME280;17847;31.524;74.366;2023-05-09T12:14:37;98353.31;;;28.07;34.77
31225;BME280;17847;31.524;74.366;2023-05-09T12:17:07;98342.25;;;28.04;34.92
31225;BME280;17847;31.524;74.366;2023-05-09T12:19:37;98347.16;;;28.24;33.65
31225;BME280;17847;31.524;74.366;2023-05-09T12:22:06;98344.00;;;28.39;29.16
31225;BME280;17847;31.524;74.366;2023-05-09T12:24:37;98341.19;;;28.87;27.83
31225;BME280;17847;31.524;74.366;2023-05-09T12:27:07;98344.88;;;28.83;33.92
31225;BME280;17847;31.524;74.366;2023-05-09T12:29:36;98352.91;;;28.96;30.36
31225;BME280;17847;31.524;74.366;2023-05-09T12:32:08;98338.63;;;29.08;28.70
31225;BME280;17847;31.524;74.366;2023-05-09T12:34:37;98338.28;;;29.27;28.99
31225;BME280;17847;31.524;74.366;2023-05-09T12:37:18;98348.72;;;29.42;28.90
31225;BME280;17847;31.524;74.366;2023-05-09T12:40:09;98349.69;;;29.46;29.40
31225;BME280;17847;31.524;74.366;2023-05-09T12:42:44;98350.50;;;29.47;27.92
31225;BME280;17847;31.524;74.366;2023-05-09T12:45:14;98348.53;;;29.64;26.36
31225;BME280;17847;31.524;74.366;2023-05-09T12:47:44;98349.16;;;29.61;28.31
31225;BME280;17847;31.524;74.366;2023-05-09T12:50:13;98352.66;;;29.70;27.01
31225;BME280;17847;31.524;74.366;2023-05-09T12:52:42;98354.28;;;29.71;26.14
31225;BME280;17847;31.524;74.366;2023-05-09T12:55:29;98354.41;;;29.75;26.48
31225;BME280;17847;31.524;74.366;2023-05-09T12:58:01;98365.69;;;29.65;27.33
31225;BME280;17847;31.524;74.366;2023-05-09T13:00:44;98356.88;;;29.59;27.16
31225;BME280;17847;31.524;74.366;2023-05-09T13:03:24;98367.97;;;29.54;29.21
31225;BME280;17847;31.524;74.366;2023-05-09T13:05:59;98365.38;;;29.58;26.97
31225;BME280;17847;31.524;74.366;2023-05-09T13:08:29;98372.94;;;29.61;26.09
31225;BME280;17847;31.524;74.366;2023-05-09T13:10:59;98372.13;;;29.60;28.55
31225;BME280;17847;31.524;74.366;2023-05-09T13:13:42;98367.31;;;29.57;27.15
31225;BME280;17847;31.524;74.366;2023-05-09T13:16:12;98365.56;;;29.53;27.68
31225;BME280;17847;31.524;74.366;2023-05-09T13:18:45;98372.00;;;29.31;31.53
31225;BME280;17847;31.524;74.366;2023-05-09T13:21:14;98365.59;;;28.92;32.36
31225;BME280;17847;31.524;74.366;2023-05-09T13:23:43;98379.78;;;28.64;33.53
31225;BME280;17847;31.524;74.366;2023-05-09T13:26:13;98370.13;;;28.40;33.08
31225;BME280;17847;31.524;74.366;2023-05-09T13:28:42;98379.38;;;28.22;34.00
31225;BME280;17847;31.524;74.366;2023-05-09T13:31:11;98377.16;;;28.02;35.04